Time;durP1;ratioP1;P1;durP2;ratioP2;P2;SDS_P1;SDS_P2;PMS_P1;PMS_P2;Temp;Humidity;BMP_temperature;BMP_pressure;BME280_temperature;BME280_humidity;BME280_pressure;Samples;Min_cycle;Max_cycle;Signal;HPM_P1;HPM_P2
2021/12/31 00:02:09;;;;;;;113.72;42.30;;;12.50;99.90;;;;;;5089788;28;20431;-51
2021/12/31 00:04:35;;;;;;;95.22;38.95;;;12.50;99.90;;;;;;5089757;28;20024;-48
2021/12/31 00:07:00;;;;;;;107.78;38.10;;;12.50;99.90;;;;;;5089803;28;20421;-49
2021/12/31 00:09:26;;;;;;;90.07;36.55;;;12.50;99.90;;;;;;5088815;28;20019;-48
2021/12/31 00:11:52;;;;;;;86.00;35.28;;;12.50;99.90;;;;;;5089510;28;20054;-46
2021/12/31 00:14:19;;;;;;;93.88;34.67;;;12.50;99.90;;;;;;5089553;28;20367;-47
2021/12/31 00:16:45;;;;;;;98.22;37.08;;;12.50;99.90;;;;;;5089450;28;20077;-49
2021/12/31 00:19:11;;;;;;;85.45;33.83;;;12.50;99.90;;;;;;5088883;28;20028;-50
2021/12/31 00:21:37;;;;;;;93.80;36.15;;;12.50;99.90;;;;;;5088036;28;20251;-49
2021/12/31 00:24:03;;;;;;;69.05;31.13;;;12.50;99.90;;;;;;5089124;28;20051;-50
2021/12/31 00:26:29;;;;;;;107.03;37.15;;;12.50;99.90;;;;;;5092718;28;20027;-50
2021/12/31 00:28:54;;;;;;;76.68;29.60;;;12.50;99.90;;;;;;5085133;28;20370;-49
2021/12/31 00:31:20;;;;;;;69.43;29.88;;;12.50;99.90;;;;;;5089289;28;20497;-51
2021/12/31 00:33:45;;;;;;;73.05;28.50;;;12.50;99.90;;;;;;5089406;28;20016;-48
2021/12/31 00:36:11;;;;;;;88.88;31.77;;;12.50;99.90;;;;;;5089333;28;20466;-49
2021/12/31 00:38:37;;;;;;;60.33;28.20;;;12.50;99.90;;;;;;5088373;28;20339;-50
2021/12/31 00:41:02;;;;;;;86.95;30.33;;;12.50;99.90;;;;;;5088826;28;20104;-51
2021/12/31 00:43:28;;;;;;;78.38;30.02;;;12.50;99.90;;;;;;5079657;28;20142;-48
2021/12/31 00:45:53;;;;;;;71.55;27.88;;;12.50;99.90;;;;;;5085567;28;20031;-48
2021/12/31 00:48:19;;;;;;;70.40;27.45;;;12.50;99.90;;;;;;5088559;28;20046;-48
2021/12/31 00:50:45;;;;;;;57.15;24.25;;;12.50;99.90;;;;;;5087732;28;20028;-49
2021/12/31 00:53:10;;;;;;;59.47;23.55;;;12.50;99.90;;;;;;5088589;28;20233;-50
2021/12/31 00:55:36;;;;;;;53.55;22.50;;;12.50;99.90;;;;;;5080255;28;20016;-49
2021/12/31 00:58:02;;;;;;;55.17;22.58;;;12.50;99.90;;;;;;5078392;28;20031;-50
2021/12/31 01:00:29;;;;;;;64.85;24.55;;;12.60;99.90;;;;;;5088788;28;20023;-48
2021/12/31 01:02:54;;;;;;;73.82;25.17;;;12.50;99.90;;;;;;5087730;28;20370;-49
2021/12/31 01:05:20;;;;;;;35.72;18.25;;;12.50;99.90;;;;;;5088938;28;20058;-48
2021/12/31 01:07:46;;;;;;;45.85;20.85;;;12.50;99.90;;;;;;5088159;28;20032;-49
2021/12/31 01:10:15;;;;;;;43.67;18.88;;;12.50;99.90;;;;;;5088525;28;20020;-49
2021/12/31 01:12:41;;;;;;;41.25;17.70;;;12.50;99.90;;;;;;5088962;28;20034;-49
2021/12/31 01:15:12;;;;;;;39.00;17.70;;;12.50;99.90;;;;;;5088759;28;20098;-50
2021/12/31 01:20:07;;;;;;;39.78;16.73;;;12.50;99.90;;;;;;5088790;28;19950;-48
2021/12/31 01:22:33;;;;;;;39.72;14.88;;;12.50;99.90;;;;;;5088629;28;20472;-49
2021/12/31 01:24:59;;;;;;;27.25;14.20;;;12.50;99.90;;;;;;5081132;28;20024;-48
2021/12/31 01:27:25;;;;;;;29.60;13.82;;;12.40;99.90;;;;;;5079552;28;20020;-49
2021/12/31 01:29:51;;;;;;;33.88;13.50;;;12.40;99.90;;;;;;5088890;28;20035;-48
2021/12/31 01:32:16;;;;;;;35.75;14.32;;;12.40;99.90;;;;;;5088734;28;20039;-49
2021/12/31 01:34:42;;;;;;;32.13;14.10;;;12.40;99.90;;;;;;5088792;28;20024;-48
2021/12/31 01:37:09;;;;;;;28.30;12.18;;;12.30;99.90;;;;;;5088281;28;20262;-52
2021/12/31 01:39:35;;;;;;;28.95;12.88;;;12.30;99.90;;;;;;5087920;28;20282;-49
2021/12/31 01:42:02;;;;;;;30.45;12.57;;;12.30;99.90;;;;;;5088593;28;20020;-50
2021/12/31 01:44:40;;;;;;;28.65;12.18;;;12.30;99.90;;;;;;5087130;28;20023;-48
2021/12/31 01:47:11;;;;;;;26.10;13.10;;;12.30;99.90;;;;;;5088491;28;20047;-50
2021/12/31 01:49:40;;;;;;;31.63;13.25;;;12.30;99.90;;;;;;5088694;28;20024;-48
2021/12/31 01:52:07;;;;;;;32.35;14.88;;;12.30;99.90;;;;;;5086920;28;20089;-48
2021/12/31 01:54:34;;;;;;;32.70;14.00;;;12.30;99.90;;;;;;5083566;28;20056;-50
2021/12/31 01:57:02;;;;;;;27.88;14.30;;;12.30;99.90;;;;;;5077005;28;20024;-48
2021/12/31 01:59:28;;;;;;;32.08;14.15;;;12.30;99.90;;;;;;5086276;28;20028;-51
2021/12/31 02:01:55;;;;;;;36.38;15.45;;;12.30;99.90;;;;;;5088297;28;20028;-51
2021/12/31 02:04:21;;;;;;;33.15;15.52;;;12.30;99.90;;;;;;5088269;28;20032;-48
2021/12/31 02:06:46;;;;;;;33.40;15.38;;;12.20;99.90;;;;;;5091831;28;20047;-49
2021/12/31 02:09:13;;;;;;;30.00;14.65;;;12.20;99.90;;;;;;5091318;28;20024;-49
2021/12/31 02:11:39;;;;;;;24.17;11.93;;;12.20;99.90;;;;;;5091727;28;20077;-49
2021/12/31 02:14:05;;;;;;;22.60;11.32;;;12.30;99.90;;;;;;5091869;28;20020;-48
2021/12/31 02:16:31;;;;;;;20.27;11.05;;;12.20;99.90;;;;;;5092126;28;20110;-45
2021/12/31 02:19:26;;;;;;;19.17;10.52;;;12.20;99.90;;;;;;5091058;28;20077;-45
2021/12/31 02:21:52;;;;;;;15.35;9.65;;;12.20;99.90;;;;;;5091844;28;20024;-49
2021/12/31 02:24:18;;;;;;;17.60;9.25;;;12.20;99.90;;;;;;5090266;28;20031;-46
2021/12/31 02:26:44;;;;;;;13.02;8.48;;;12.10;99.90;;;;;;5095129;28;20103;-46
2021/12/31 02:29:09;;;;;;;11.25;8.48;;;12.10;99.90;;;;;;5088244;28;20194;-45
2021/12/31 02:31:35;;;;;;;16.40;9.43;;;12.20;99.90;;;;;;5091450;28;20032;-46
2021/12/31 02:34:00;;;;;;;14.88;9.15;;;12.20;99.90;;;;;;5091509;28;20059;-47
2021/12/31 02:36:26;;;;;;;17.35;10.43;;;12.30;99.90;;;;;;5091462;28;20024;-45
2021/12/31 02:38:51;;;;;;;17.27;10.30;;;12.20;99.90;;;;;;5090785;28;20392;-46
2021/12/31 02:41:17;;;;;;;13.13;9.52;;;12.20;99.90;;;;;;5086636;28;20381;-45
2021/12/31 02:43:43;;;;;;;16.23;10.95;;;12.20;99.90;;;;;;5077583;28;20028;-45
2021/12/31 02:46:08;;;;;;;16.70;11.25;;;12.20;99.90;;;;;;5079559;28;20024;-45
2021/12/31 02:48:34;;;;;;;16.30;10.70;;;12.20;99.90;;;;;;5077369;28;20036;-49
2021/12/31 02:51:01;;;;;;;13.70;9.95;;;12.10;99.90;;;;;;5076160;28;20406;-46
2021/12/31 02:53:35;;;;;;;14.43;10.15;;;12.20;99.90;;;;;;5082643;28;20020;-45
2021/12/31 02:56:04;;;;;;;18.52;10.68;;;12.20;99.90;;;;;;5083602;28;20035;-46
2021/12/31 02:58:30;;;;;;;16.13;10.45;;;12.20;99.90;;;;;;5083718;28;20486;-46
2021/12/31 03:00:56;;;;;;;16.48;9.63;;;12.20;99.90;;;;;;5090933;28;20031;-47
2021/12/31 03:03:23;;;;;;;14.35;10.60;;;12.20;99.90;;;;;;5091262;28;20363;-46
2021/12/31 03:05:52;;;;;;;11.85;10.35;;;12.40;99.90;;;;;;5090724;28;20027;-47
2021/12/31 03:08:20;;;;;;;10.50;9.40;;;12.40;99.90;;;;;;5090311;28;20123;-48
2021/12/31 03:10:47;;;;;;;12.52;9.35;;;12.40;99.90;;;;;;5090934;28;20028;-47
2021/12/31 03:13:15;;;;;;;11.07;9.98;;;12.40;99.90;;;;;;5090607;28;20481;-49
2021/12/31 03:15:41;;;;;;;12.23;10.48;;;12.40;99.90;;;;;;5090791;28;20020;-48
2021/12/31 03:18:09;;;;;;;14.10;10.82;;;12.40;99.90;;;;;;5089157;28;20105;-48
2021/12/31 03:20:41;;;;;;;12.23;10.23;;;12.50;99.90;;;;;;5090755;28;20040;-50
2021/12/31 03:23:08;;;;;;;14.90;11.25;;;12.50;99.90;;;;;;5090713;28;20016;-47
2021/12/31 03:25:33;;;;;;;13.75;11.73;;;12.50;99.90;;;;;;5084528;28;20058;-47
2021/12/31 03:28:00;;;;;;;14.00;11.85;;;12.50;99.90;;;;;;5081269;28;20292;-48
2021/12/31 03:30:26;;;;;;;13.60;11.80;;;12.50;99.90;;;;;;5090525;28;20107;-47
2021/12/31 03:32:52;;;;;;;13.60;11.82;;;12.60;99.90;;;;;;5090368;28;20595;-47
2021/12/31 03:35:18;;;;;;;14.82;11.75;;;12.50;99.90;;;;;;5090410;28;20032;-47
2021/12/31 03:37:43;;;;;;;20.55;11.93;;;12.60;99.90;;;;;;5088136;28;20281;-48
2021/12/31 03:40:09;;;;;;;14.88;12.80;;;12.50;99.90;;;;;;5090340;28;20392;-48
2021/12/31 03:42:35;;;;;;;16.75;13.32;;;12.50;99.90;;;;;;5070600;28;20031;-47
2021/12/31 03:45:00;;;;;;;15.73;11.93;;;12.50;99.90;;;;;;5069430;28;20024;-49
2021/12/31 03:47:26;;;;;;;15.90;12.55;;;12.50;99.90;;;;;;5069104;28;20355;-48
2021/12/31 03:49:51;;;;;;;15.20;13.40;;;12.60;99.90;;;;;;5069529;28;20103;-47
2021/12/31 03:52:17;;;;;;;14.05;12.55;;;12.50;99.90;;;;;;5069270;28;20025;-47
2021/12/31 03:54:42;;;;;;;16.33;12.68;;;12.50;99.90;;;;;;5068504;28;20024;-47
2021/12/31 03:57:08;;;;;;;17.35;12.70;;;12.50;99.90;;;;;;5070367;28;20163;-46
2021/12/31 03:59:33;;;;;;;17.80;12.35;;;12.50;99.90;;;;;;5068913;28;20187;-50
2021/12/31 04:01:59;;;;;;;14.50;13.00;;;12.50;99.90;;;;;;5069198;28;20025;-47
2021/12/31 04:04:24;;;;;;;14.75;12.93;;;12.50;99.90;;;;;;5069194;28;20074;-47
2021/12/31 04:06:50;;;;;;;15.50;13.13;;;12.50;99.90;;;;;;5069112;28;20546;-48
2021/12/31 04:09:15;;;;;;;15.38;13.13;;;12.50;99.90;;;;;;5068586;28;20028;-47
2021/12/31 04:11:41;;;;;;;19.63;14.15;;;12.50;99.90;;;;;;5068548;28;20581;-46
2021/12/31 04:14:06;;;;;;;19.40;12.70;;;12.50;99.90;;;;;;5068988;28;20462;-47
2021/12/31 04:16:32;;;;;;;15.32;12.45;;;12.50;99.90;;;;;;5068975;28;20040;-47
2021/12/31 04:18:57;;;;;;;19.27;12.90;;;12.50;99.90;;;;;;5068103;28;20124;-48
2021/12/31 04:21:24;;;;;;;13.00;11.48;;;12.50;99.90;;;;;;5068843;28;20052;-47
2021/12/31 04:24:14;;;;;;;13.32;11.98;;;12.50;99.90;;;;;;5067430;28;20077;-52
2021/12/31 04:26:38;;;;;;;14.18;12.40;;;12.60;99.90;;;;;;5068813;28;20021;-47
2021/12/31 04:29:04;;;;;;;15.80;12.88;;;12.60;99.90;;;;;;5068484;28;20125;-47
2021/12/31 04:31:29;;;;;;;12.43;10.93;;;12.70;99.90;;;;;;5068718;28;20060;-46
2021/12/31 04:33:55;;;;;;;15.95;12.35;;;12.70;99.90;;;;;;5068802;28;20032;-47
2021/12/31 04:36:20;;;;;;;15.88;12.55;;;12.70;99.90;;;;;;5068587;28;20036;-48
2021/12/31 04:38:46;;;;;;;12.90;11.38;;;12.70;99.90;;;;;;5067626;28;20029;-47
2021/12/31 04:41:11;;;;;;;16.13;11.52;;;12.70;99.90;;;;;;5068419;28;20048;-47
2021/12/31 04:43:37;;;;;;;13.45;11.07;;;12.70;99.90;;;;;;5070644;28;20693;-48
2021/12/31 04:46:02;;;;;;;15.25;11.52;;;12.70;99.90;;;;;;5073574;28;20012;-46
2021/12/31 04:48:28;;;;;;;13.85;10.95;;;12.70;99.90;;;;;;5068222;28;20523;-46
2021/12/31 04:50:53;;;;;;;13.52;10.60;;;12.70;99.90;;;;;;5068767;28;20025;-46
2021/12/31 04:53:19;;;;;;;13.50;11.70;;;12.80;99.90;;;;;;5068704;28;20513;-47
2021/12/31 04:55:44;;;;;;;12.13;10.25;;;12.70;99.90;;;;;;5074896;28;20016;-47
2021/12/31 04:58:10;;;;;;;13.50;10.85;;;12.80;99.90;;;;;;5079715;28;20024;-48
2021/12/31 05:00:35;;;;;;;15.13;11.52;;;12.70;99.90;;;;;;5089083;28;20016;-48
2021/12/31 05:03:08;;;;;;;14.77;11.98;;;12.70;99.90;;;;;;5088779;28;20056;-48
2021/12/31 05:05:34;;;;;;;17.20;11.52;;;12.70;99.90;;;;;;5088829;28;20024;-48
2021/12/31 05:08:00;;;;;;;16.65;12.23;;;12.70;99.90;;;;;;5103824;28;20481;-49
2021/12/31 05:10:28;;;;;;;13.48;12.02;;;12.70;99.90;;;;;;5088525;28;20089;-47
2021/12/31 05:12:55;;;;;;;15.55;11.40;;;12.70;99.90;;;;;;5069469;28;20037;-47
2021/12/31 05:15:27;;;;;;;14.18;11.75;;;12.70;99.90;;;;;;5066832;28;20414;-48
2021/12/31 05:17:54;;;;;;;16.90;11.82;;;12.70;99.90;;;;;;5067502;28;20086;-47
2021/12/31 05:20:20;;;;;;;16.25;12.90;;;12.70;99.90;;;;;;5065498;28;20390;-46
2021/12/31 05:22:46;;;;;;;16.33;12.57;;;12.70;99.90;;;;;;5068041;28;20047;-46
2021/12/31 05:25:12;;;;;;;14.55;12.95;;;12.80;99.90;;;;;;5067765;28;20049;-47
2021/12/31 05:27:37;;;;;;;15.93;12.52;;;12.70;99.90;;;;;;5070978;28;20103;-47
2021/12/31 05:30:04;;;;;;;17.15;13.00;;;12.70;99.90;;;;;;5068320;28;20078;-47
2021/12/31 05:32:31;;;;;;;16.33;13.10;;;12.80;99.90;;;;;;5068234;28;20025;-47
2021/12/31 05:34:57;;;;;;;16.42;13.13;;;12.80;99.90;;;;;;5067076;28;20071;-48
2021/12/31 05:37:22;;;;;;;14.02;12.60;;;12.70;99.90;;;;;;5067952;28;20020;-47
2021/12/31 05:39:47;;;;;;;16.70;13.07;;;12.80;99.90;;;;;;5068530;28;20041;-47
2021/12/31 05:42:13;;;;;;;16.73;12.57;;;12.80;99.90;;;;;;5072620;28;20055;-47
2021/12/31 05:44:39;;;;;;;14.88;11.52;;;12.80;99.90;;;;;;5072702;28;20165;-47
2021/12/31 05:47:04;;;;;;;13.45;11.68;;;12.80;99.90;;;;;;5072259;28;20035;-48
2021/12/31 05:49:30;;;;;;;13.35;11.90;;;12.80;99.90;;;;;;5071480;28;20158;-47
2021/12/31 05:51:55;;;;;;;14.93;10.57;;;12.80;99.90;;;;;;5072108;28;20115;-47
2021/12/31 05:54:21;;;;;;;11.88;9.98;;;12.90;99.90;;;;;;5072414;28;20370;-47
2021/12/31 05:56:47;;;;;;;14.27;9.77;;;12.90;99.90;;;;;;5075677;28;20386;-47
2021/12/31 05:59:12;;;;;;;16.70;9.10;;;13.00;99.90;;;;;;5070725;28;20017;-48
2021/12/31 06:01:38;;;;;;;14.13;8.52;;;13.00;99.90;;;;;;5071559;28;20020;-46
2021/12/31 06:04:03;;;;;;;9.13;6.63;;;13.00;99.90;;;;;;5071355;28;20579;-48
2021/12/31 06:06:29;;;;;;;11.15;6.57;;;13.10;99.90;;;;;;5069991;28;20027;-46
2021/12/31 06:08:54;;;;;;;10.35;7.50;;;13.10;99.90;;;;;;5070734;28;20068;-46
2021/12/31 06:11:20;;;;;;;11.68;6.40;;;13.00;99.90;;;;;;5071453;28;20025;-46
2021/12/31 06:13:49;;;;;;;10.98;6.95;;;13.00;99.90;;;;;;5071747;28;20111;-47
2021/12/31 06:16:15;;;;;;;9.15;6.90;;;13.00;99.90;;;;;;5070398;28;20063;-48
2021/12/31 06:18:41;;;;;;;13.77;7.00;;;12.90;99.90;;;;;;5070765;28;20474;-49
2021/12/31 06:21:07;;;;;;;9.18;7.07;;;12.80;99.90;;;;;;5070173;28;20028;-47
2021/12/31 06:23:32;;;;;;;12.15;7.88;;;12.80;99.90;;;;;;5071467;28;20107;-46
2021/12/31 06:25:57;;;;;;;12.68;8.18;;;12.80;99.90;;;;;;5078129;28;20097;-47
2021/12/31 06:28:23;;;;;;;18.35;8.30;;;12.70;99.90;;;;;;5083097;28;20027;-46
2021/12/31 06:30:49;;;;;;;10.77;8.30;;;12.70;99.90;;;;;;5091606;28;20596;-47
2021/12/31 06:33:15;;;;;;;14.20;8.18;;;12.70;99.90;;;;;;5090084;28;20058;-47
2021/12/31 06:35:40;;;;;;;10.40;7.50;;;12.80;99.90;;;;;;5091471;28;20214;-47
2021/12/31 06:38:06;;;;;;;11.77;7.00;;;12.80;99.90;;;;;;5090795;28;20370;-47
2021/12/31 06:40:34;;;;;;;12.13;6.80;;;12.80;99.90;;;;;;5091102;28;20474;-48
2021/12/31 06:43:00;;;;;;;6.57;5.70;;;12.80;99.90;;;;;;5091444;28;20478;-50
2021/12/31 06:45:26;;;;;;;12.70;6.47;;;12.80;99.90;;;;;;5091297;28;20070;-47
2021/12/31 06:47:52;;;;;;;10.07;5.85;;;12.80;99.90;;;;;;5090512;28;20019;-49
2021/12/31 06:50:18;;;;;;;12.70;5.43;;;12.90;99.90;;;;;;5091292;28;20080;-48
2021/12/31 06:52:45;;;;;;;7.45;5.25;;;12.90;99.90;;;;;;5090089;28;20031;-46
2021/12/31 06:55:10;;;;;;;7.38;4.93;;;12.90;99.90;;;;;;5087536;28;20450;-48
2021/12/31 06:57:36;;;;;;;10.13;5.25;;;12.90;99.90;;;;;;5081991;28;20035;-46
2021/12/31 07:00:07;;;;;;;9.70;5.50;;;12.90;99.90;;;;;;5091049;28;20069;-47
2021/12/31 07:02:32;;;;;;;7.75;4.47;;;12.80;99.90;;;;;;5090923;28;20021;-48
2021/12/31 07:04:58;;;;;;;9.32;4.95;;;12.80;99.90;;;;;;5091100;28;20524;-46
2021/12/31 07:07:23;;;;;;;9.82;4.35;;;12.80;99.90;;;;;;5090453;28;20508;-46
2021/12/31 07:09:49;;;;;;;6.72;4.78;;;12.80;99.90;;;;;;5078862;28;20390;-48
2021/12/31 07:12:14;;;;;;;6.65;4.07;;;12.90;99.90;;;;;;5069962;28;20028;-48
2021/12/31 07:14:40;;;;;;;7.40;3.60;;;12.90;99.90;;;;;;5070288;28;20029;-47
2021/12/31 07:17:06;;;;;;;11.43;3.90;;;12.90;99.90;;;;;;5069205;28;20509;-48
2021/12/31 07:19:31;;;;;;;6.72;3.70;;;12.90;99.90;;;;;;5068925;28;20096;-47
2021/12/31 07:21:57;;;;;;;4.93;3.30;;;12.90;99.90;;;;;;5069695;28;20086;-47
2021/12/31 07:24:22;;;;;;;5.70;3.17;;;13.00;99.90;;;;;;5070066;28;20111;-48
2021/12/31 07:26:48;;;;;;;7.68;3.25;;;13.00;99.90;;;;;;5069718;28;20078;-49
2021/12/31 07:29:13;;;;;;;5.22;2.85;;;13.00;99.90;;;;;;5071127;28;20032;-48
2021/12/31 07:31:38;;;;;;;8.48;3.13;;;13.10;99.90;;;;;;5070158;28;20031;-49
2021/12/31 07:34:04;;;;;;;3.70;2.70;;;13.10;99.90;;;;;;5069783;28;20404;-48
2021/12/31 07:36:29;;;;;;;4.72;2.55;;;13.10;99.90;;;;;;5070188;28;20024;-48
2021/12/31 07:39:00;;;;;;;7.70;2.42;;;13.10;99.90;;;;;;5069432;28;20045;-48
2021/12/31 07:41:26;;;;;;;4.70;2.95;;;13.10;99.90;;;;;;5067880;28;20467;-48
2021/12/31 07:43:52;;;;;;;2.80;2.20;;;13.10;99.90;;;;;;5051137;28;20029;-51
2021/12/31 07:46:18;;;;;;;4.78;2.38;;;13.20;99.90;;;;;;5051233;28;20398;-49
2021/12/31 07:48:43;;;;;;;3.75;2.40;;;13.20;99.90;;;;;;5065591;28;20032;-48
2021/12/31 07:51:08;;;;;;;4.15;2.28;;;13.20;99.90;;;;;;5073326;28;20037;-51
2021/12/31 07:53:34;;;;;;;5.55;2.30;;;13.20;99.90;;;;;;5071440;28;20033;-49
2021/12/31 07:55:59;;;;;;;7.22;3.17;;;13.20;99.90;;;;;;5075018;28;20037;-49
2021/12/31 07:58:27;;;;;;;3.33;2.15;;;13.30;99.90;;;;;;5074061;28;20029;-48
2021/12/31 08:00:53;;;;;;;4.63;2.30;;;13.30;99.90;;;;;;5069031;28;20027;-50
2021/12/31 08:03:18;;;;;;;3.35;1.70;;;13.20;99.90;;;;;;5070847;28;20036;-51
2021/12/31 08:05:43;;;;;;;6.97;2.28;;;13.20;99.90;;;;;;5072690;28;20070;-51
2021/12/31 08:08:09;;;;;;;3.35;1.90;;;13.10;99.90;;;;;;5102241;28;20032;-49
2021/12/31 08:10:35;;;;;;;6.60;2.30;;;13.20;99.90;;;;;;5089916;28;20024;-52
2021/12/31 08:13:01;;;;;;;3.85;2.38;;;13.20;99.90;;;;;;5089779;28;20271;-52
2021/12/31 08:15:28;;;;;;;3.28;2.20;;;13.20;99.90;;;;;;5089582;28;20486;-51
2021/12/31 08:17:56;;;;;;;6.15;2.15;;;13.30;99.90;;;;;;5087480;28;20104;-52
2021/12/31 08:20:23;;;;;;;4.70;2.20;;;13.30;99.90;;;;;;5089600;28;20107;-51
2021/12/31 08:22:49;;;;;;;4.68;2.45;;;13.30;99.90;;;;;;5072193;28;20016;-52
2021/12/31 08:25:15;;;;;;;5.68;2.28;;;13.40;99.90;;;;;;5068971;28;20108;-50
2021/12/31 08:27:41;;;;;;;7.40;2.38;;;13.50;99.90;;;;;;5076754;28;20103;-51
2021/12/31 08:30:08;;;;;;;4.80;2.20;;;13.60;99.90;;;;;;5068498;28;20056;-51
2021/12/31 08:32:34;;;;;;;3.78;2.10;;;13.60;99.90;;;;;;5068839;28;20664;-50
2021/12/31 08:34:59;;;;;;;3.38;2.13;;;13.70;99.90;;;;;;5068930;28;20024;-49
2021/12/31 08:37:25;;;;;;;4.18;2.28;;;13.70;99.90;;;;;;5068215;28;20059;-51
2021/12/31 08:39:51;;;;;;;3.85;2.08;;;13.80;99.90;;;;;;5068840;28;20259;-49
2021/12/31 08:42:16;;;;;;;4.88;2.03;;;13.80;99.90;;;;;;5068657;28;20025;-49
2021/12/31 08:44:42;;;;;;;3.53;2.28;;;13.80;99.90;;;;;;5068932;28;20115;-51
2021/12/31 08:47:07;;;;;;;3.33;2.08;;;13.80;99.90;;;;;;5068802;28;20024;-51
2021/12/31 08:49:33;;;;;;;6.35;2.03;;;13.80;99.90;;;;;;5068394;28;20412;-50
2021/12/31 08:52:00;;;;;;;6.80;2.75;;;13.80;99.90;;;;;;5068632;28;20025;-49
2021/12/31 08:54:25;;;;;;;5.88;1.98;;;13.80;99.90;;;;;;5068734;28;20037;-49
2021/12/31 08:56:51;;;;;;;4.68;2.15;;;13.90;99.90;;;;;;5076294;28;20105;-51
2021/12/31 08:59:19;;;;;;;6.05;2.15;;;13.90;99.90;;;;;;5089043;28;20466;-50
2021/12/31 09:01:45;;;;;;;4.18;2.03;;;13.90;99.90;;;;;;5090194;28;20020;-50
2021/12/31 09:04:10;;;;;;;3.17;1.65;;;13.90;99.90;;;;;;5082116;28;20497;-50
2021/12/31 09:06:35;;;;;;;3.28;1.60;;;14.00;99.90;;;;;;5067115;28;20029;-49
2021/12/31 09:09:03;;;;;;;3.28;1.73;;;14.00;99.90;;;;;;5067796;28;20032;-51
2021/12/31 09:11:28;;;;;;;2.38;1.55;;;14.00;99.90;;;;;;5068036;28;20102;-51
2021/12/31 09:13:55;;;;;;;4.50;2.17;;;14.00;99.90;;;;;;5068741;28;20071;-50
2021/12/31 09:16:21;;;;;;;2.88;1.80;;;14.00;99.90;;;;;;5066345;28;20118;-49
2021/12/31 09:18:46;;;;;;;5.35;2.08;;;14.00;99.90;;;;;;5067320;28;20063;-49
2021/12/31 09:21:12;;;;;;;6.53;1.88;;;14.10;99.90;;;;;;5068205;28;20100;-51
2021/12/31 09:23:38;;;;;;;3.47;1.65;;;14.10;99.90;;;;;;5067800;28;20482;-50
2021/12/31 09:26:03;;;;;;;5.15;2.08;;;14.20;99.90;;;;;;5076334;28;20028;-51
2021/12/31 09:28:29;;;;;;;2.13;1.40;;;14.20;99.90;;;;;;5080871;28;20118;-48
2021/12/31 09:30:55;;;;;;;8.43;1.63;;;14.20;99.90;;;;;;5088466;28;20043;-51
2021/12/31 09:33:21;;;;;;;3.00;1.88;;;14.20;99.90;;;;;;5088684;28;20035;-51
2021/12/31 09:35:47;;;;;;;4.15;1.85;;;14.10;99.90;;;;;;5088355;28;20417;-49
2021/12/31 09:38:12;;;;;;;2.97;1.40;;;14.20;99.90;;;;;;5087775;28;20032;-49
2021/12/31 09:40:41;;;;;;;4.78;2.03;;;14.20;99.90;;;;;;5087686;28;20036;-49
2021/12/31 09:43:12;;;;;;;2.78;1.63;;;14.10;99.90;;;;;;5086695;28;20024;-50
2021/12/31 09:45:40;;;;;;;1.90;1.30;;;14.20;99.90;;;;;;5087287;28;20433;-51
2021/12/31 09:48:11;;;;;;;2.45;1.67;;;14.20;99.90;;;;;;5086361;28;20654;-48
2021/12/31 09:50:40;;;;;;;4.20;1.42;;;14.20;99.90;;;;;;5088404;28;20417;-49
2021/12/31 09:53:07;;;;;;;3.42;1.40;;;14.20;99.90;;;;;;5088358;28;20474;-50
2021/12/31 09:55:35;;;;;;;1.63;1.27;;;14.20;99.90;;;;;;5082214;28;20035;-51
2021/12/31 09:58:00;;;;;;;2.90;1.30;;;14.30;99.90;;;;;;5076525;28;20055;-49
2021/12/31 10:00:26;;;;;;;1.80;1.20;;;14.30;99.90;;;;;;5088278;28;20463;-50
2021/12/31 10:03:28;;;;;;;1.98;1.50;;;14.40;99.90;;;;;;5087059;28;20035;-51
2021/12/31 10:05:57;;;;;;;5.50;1.75;;;14.40;99.90;;;;;;5088178;28;20093;-51
2021/12/31 10:08:31;;;;;;;3.40;1.77;;;14.30;99.90;;;;;;5087774;28;20028;-49
2021/12/31 10:11:09;;;;;;;2.45;1.83;;;14.30;99.90;;;;;;5087951;28;20758;-48
2021/12/31 10:13:37;;;;;;;1.98;1.52;;;14.30;99.90;;;;;;5088322;28;20081;-48
2021/12/31 10:16:03;;;;;;;3.78;1.42;;;14.30;99.90;;;;;;5088215;28;20051;-49
2021/12/31 10:18:39;;;;;;;6.68;1.83;;;14.40;99.90;;;;;;5087514;28;20501;-49
2021/12/31 10:21:05;;;;;;;4.15;1.35;;;14.30;99.90;;;;;;5088120;28;20020;-50
2021/12/31 10:23:36;;;;;;;3.53;1.58;;;14.30;99.90;;;;;;5088200;28;20020;-48
2021/12/31 10:26:13;;;;;;;3.75;1.85;;;14.30;99.90;;;;;;5080228;28;20021;-49
2021/12/31 10:28:52;;;;;;;2.50;1.50;;;14.40;99.90;;;;;;5082446;28;20070;-51
2021/12/31 10:31:17;;;;;;;4.07;1.40;;;14.40;99.90;;;;;;5090133;28;20556;-49
2021/12/31 10:33:45;;;;;;;1.77;1.30;;;14.40;99.90;;;;;;5091665;28;20255;-50
2021/12/31 10:36:33;;;;;;;2.65;1.30;;;14.40;99.90;;;;;;5091541;28;20062;-49
2021/12/31 10:39:03;;;;;;;2.35;1.65;;;14.40;99.90;;;;;;5090596;28;20028;-49
2021/12/31 10:41:29;;;;;;;2.60;1.48;;;14.40;99.90;;;;;;5090323;28;20113;-49
2021/12/31 10:43:58;;;;;;;2.90;1.42;;;14.40;99.90;;;;;;5090884;28;20047;-49
2021/12/31 10:46:23;;;;;;;3.58;1.48;;;14.40;99.90;;;;;;5090906;28;20020;-50
2021/12/31 10:48:52;;;;;;;3.25;1.70;;;14.40;99.90;;;;;;5090184;28;20034;-49
2021/12/31 10:51:39;;;;;;;5.90;1.45;;;14.40;99.90;;;;;;5091100;28;20024;-48
2021/12/31 10:54:30;;;;;;;3.53;1.50;;;14.40;99.90;;;;;;5091168;28;20043;-48
2021/12/31 10:56:57;;;;;;;1.65;1.48;;;14.40;99.90;;;;;;5081603;28;20263;-50
2021/12/31 10:59:23;;;;;;;3.85;1.33;;;14.40;99.90;;;;;;5082487;28;20428;-50
2021/12/31 11:01:49;;;;;;;5.18;1.80;;;14.40;99.90;;;;;;5091198;28;20020;-51
2021/12/31 11:04:17;;;;;;;2.90;1.55;;;14.30;99.90;;;;;;5089486;28;20788;-51
2021/12/31 11:06:45;;;;;;;3.30;1.88;;;14.30;99.90;;;;;;5090936;28;20057;-52
2021/12/31 11:09:13;;;;;;;1.98;1.50;;;14.30;99.90;;;;;;5090315;28;20024;-51
2021/12/31 11:11:42;;;;;;;2.53;1.80;;;14.40;99.90;;;;;;5090567;28;20032;-50
2021/12/31 11:14:08;;;;;;;4.72;1.77;;;14.40;99.90;;;;;;5090823;28;20165;-51
2021/12/31 11:16:38;;;;;;;2.45;1.60;;;14.40;99.90;;;;;;5090688;28;20081;-50
2021/12/31 11:19:04;;;;;;;2.17;1.35;;;14.50;99.90;;;;;;5090269;28;20515;-51
2021/12/31 11:21:30;;;;;;;2.78;1.60;;;14.50;99.90;;;;;;5089292;28;20432;-51
2021/12/31 11:24:34;;;;;;;5.28;1.83;;;14.60;99.90;;;;;;5090561;28;20045;-51
2021/12/31 11:27:19;;;;;;;2.17;2.03;;;14.60;99.90;;;;;;5082098;28;20508;-51
2021/12/31 11:29:45;;;;;;;3.83;1.60;;;14.50;99.90;;;;;;5085652;28;20062;-50
2021/12/31 11:32:10;;;;;;;5.38;1.98;;;14.50;99.90;;;;;;5090534;28;20481;-51
2021/12/31 11:34:37;;;;;;;3.20;1.80;;;14.60;99.90;;;;;;5090324;28;20370;-51
2021/12/31 11:37:03;;;;;;;3.65;2.33;;;14.60;99.90;;;;;;5090136;28;20020;-50
2021/12/31 11:39:32;;;;;;;2.75;2.00;;;14.70;99.90;;;;;;5087604;28;20482;-51
2021/12/31 11:42:04;;;;;;;5.40;2.37;;;14.80;99.90;;;;;;5090138;28;20040;-50
2021/12/31 11:44:31;;;;;;;3.75;2.08;;;14.80;99.90;;;;;;5090044;28;20024;-49
2021/12/31 11:47:17;;;;;;;4.72;1.90;;;14.80;99.90;;;;;;5075828;28;20035;-49
2021/12/31 11:49:45;;;;;;;4.53;2.15;;;14.80;99.90;;;;;;5069968;28;20028;-50
2021/12/31 11:52:23;;;;;;;3.72;2.10;;;14.80;99.90;;;;;;5069122;28;20038;-50
2021/12/31 11:55:22;;;;;;;3.70;1.92;;;14.80;99.90;;;;;;5069843;28;20020;-48
2021/12/31 11:57:49;;;;;;;3.08;2.00;;;14.80;99.90;;;;;;5071458;28;20025;-51
2021/12/31 12:00:25;;;;;;;3.05;2.45;;;14.80;99.90;;;;;;5089284;28;20069;-51
2021/12/31 12:02:50;;;;;;;6.97;1.92;;;14.70;99.90;;;;;;5076282;28;20271;-49
2021/12/31 12:05:16;;;;;;;2.28;2.08;;;14.80;99.90;;;;;;5069667;28;20382;-49
2021/12/31 12:07:46;;;;;;;2.92;1.80;;;14.80;99.90;;;;;;5069020;28;20469;-49
2021/12/31 12:10:19;;;;;;;3.67;2.05;;;14.80;99.90;;;;;;5069599;28;20033;-51
2021/12/31 12:12:50;;;;;;;2.80;1.90;;;14.70;99.90;;;;;;5071274;28;20024;-51
2021/12/31 12:15:15;;;;;;;2.78;1.90;;;14.60;99.90;;;;;;5069365;28;20029;-51
2021/12/31 12:17:43;;;;;;;4.45;1.92;;;14.60;99.90;;;;;;5067632;28;20054;-51
2021/12/31 12:20:13;;;;;;;5.93;1.70;;;14.50;99.90;;;;;;5068957;28;20017;-51
2021/12/31 12:22:54;;;;;;;2.75;1.80;;;14.50;99.90;;;;;;5069474;28;20020;-50
2021/12/31 12:25:25;;;;;;;2.03;1.75;;;14.50;99.90;;;;;;5069029;28;20166;-52
2021/12/31 12:28:06;;;;;;;4.30;1.98;;;14.50;99.90;;;;;;5076519;28;20461;-49
2021/12/31 12:30:35;;;;;;;7.07;2.08;;;14.50;99.90;;;;;;5049135;28;20313;-48
2021/12/31 12:33:16;;;;;;;6.78;1.98;;;14.50;99.90;;;;;;5049276;28;20246;-50
2021/12/31 12:35:50;;;;;;;4.22;1.83;;;14.40;99.90;;;;;;5068262;28;20055;-51
2021/12/31 12:38:19;;;;;;;5.30;2.22;;;14.40;99.90;;;;;;5068248;28;20110;-49
2021/12/31 12:40:59;;;;;;;2.00;1.80;;;14.40;99.90;;;;;;5068859;28;20386;-49
2021/12/31 12:43:28;;;;;;;3.70;2.08;;;14.40;99.90;;;;;;5069178;28;20021;-51